createdAt,value
2023-05-13T00:02:02.543Z,9.60
2023-05-13T00:04:32.966Z,9.60
2023-05-13T00:07:01.855Z,9.50
2023-05-13T00:09:30.986Z,9.50
2023-05-13T00:11:59.861Z,9.40
2023-05-13T00:14:28.827Z,9.30
2023-05-13T00:16:58.866Z,9.20
2023-05-13T00:19:29.665Z,9.20
2023-05-13T00:22:00.244Z,9.10
2023-05-13T00:24:29.194Z,9.10
2023-05-13T00:26:58.004Z,9.10
2023-05-13T00:29:27.051Z,9.10
2023-05-13T00:31:56.016Z,9.10
2023-05-13T00:34:25.009Z,9.00
2023-05-13T00:36:53.974Z,9.00
2023-05-13T00:39:24.772Z,9.00
2023-05-13T00:41:53.734Z,9.00
2023-05-13T00:44:23.029Z,9.00
2023-05-13T00:46:52.086Z,9.00
2023-05-13T00:49:20.915Z,9.10
2023-05-13T00:51:50.719Z,9.00
2023-05-13T00:54:19.581Z,8.90
2023-05-13T00:56:54.496Z,8.90
2023-05-13T00:59:25.080Z,8.90
2023-05-13T01:02:02.087Z,8.90
2023-05-13T01:04:41.217Z,8.80
2023-05-13T01:07:16.233Z,8.70
2023-05-13T01:09:57.123Z,8.70
2023-05-13T01:12:33.747Z,8.60
2023-05-13T01:15:07.202Z,8.50
2023-05-13T01:17:43.006Z,8.50
2023-05-13T01:20:13.595Z,8.50
2023-05-13T01:22:44.198Z,8.50
2023-05-13T01:25:13.837Z,8.60
2023-05-13T01:27:43.860Z,8.50
2023-05-13T01:30:14.960Z,8.50
2023-05-13T01:32:44.913Z,8.40
2023-05-13T01:35:15.521Z,8.40
2023-05-13T01:37:50.292Z,8.40
2023-05-13T01:40:31.693Z,8.30
2023-05-13T01:43:05.050Z,8.30
2023-05-13T01:45:34.964Z,8.20
2023-05-13T01:48:04.615Z,8.30
2023-05-13T01:50:46.481Z,8.20
2023-05-13T01:53:17.420Z,8.20
2023-05-13T01:55:46.887Z,8.10
2023-05-13T01:58:16.051Z,8.20
2023-05-13T02:00:44.912Z,8.10
2023-05-13T02:03:13.959Z,8.20
2023-05-13T02:05:43.717Z,8.20
2023-05-13T02:08:12.655Z,8.10
2023-05-13T02:10:43.295Z,8.10
2023-05-13T02:13:12.675Z,8.00
2023-05-13T02:15:41.695Z,8.00
2023-05-13T02:18:11.694Z,8.00
2023-05-13T02:20:40.890Z,7.90
2023-05-13T02:23:10.005Z,7.80
2023-05-13T02:25:39.084Z,7.90
2023-05-13T02:28:10.221Z,7.90
2023-05-13T02:30:38.925Z,7.90
2023-05-13T02:33:08.758Z,7.80
2023-05-13T02:35:38.077Z,8.00
2023-05-13T02:38:07.740Z,7.90
2023-05-13T02:40:37.428Z,8.00
2023-05-13T02:43:06.688Z,8.00
2023-05-13T02:45:50.614Z,7.90
2023-05-13T02:48:19.566Z,7.90
2023-05-13T02:50:48.418Z,7.80
2023-05-13T02:53:17.494Z,7.80
2023-05-13T02:55:52.603Z,7.70
2023-05-13T02:58:21.508Z,7.80
2023-05-13T03:00:52.151Z,7.70
2023-05-13T03:03:21.216Z,7.70
2023-05-13T03:05:49.982Z,7.60
2023-05-13T03:08:19.115Z,7.70
2023-05-13T03:10:47.906Z,7.60
2023-05-13T03:13:16.915Z,7.60
2023-05-13T03:15:45.939Z,7.60
2023-05-13T03:18:16.473Z,7.60
2023-05-13T03:20:45.824Z,7.60
2023-05-13T03:23:15.148Z,7.80
2023-05-13T03:25:45.803Z,7.70
2023-05-13T03:28:14.984Z,7.80
2023-05-13T03:30:45.912Z,7.90
2023-05-13T03:33:20.787Z,8.00
2023-05-13T03:35:50.103Z,8.20
2023-05-13T03:38:22.802Z,8.50
2023-05-13T03:40:53.886Z,8.80
2023-05-13T03:43:23.037Z,9.20
2023-05-13T03:45:57.804Z,9.60
2023-05-13T03:48:28.609Z,10.00
2023-05-13T03:51:00.045Z,10.40
2023-05-13T03:53:29.498Z,10.80
2023-05-13T03:55:58.242Z,11.20
2023-05-13T03:58:29.721Z,11.40
2023-05-13T04:00:59.856Z,11.50
2023-05-13T04:03:31.348Z,11.60
2023-05-13T04:06:00.408Z,11.70
2023-05-13T04:08:29.314Z,11.70
2023-05-13T04:10:58.252Z,11.80
2023-05-13T04:13:28.337Z,12.00
2023-05-13T04:15:57.335Z,12.30
2023-05-13T04:18:26.110Z,12.50
2023-05-13T04:20:58.450Z,12.70
2023-05-13T04:23:27.389Z,12.90
2023-05-13T04:25:56.678Z,13.10
2023-05-13T04:28:25.785Z,13.30
2023-05-13T04:30:55.469Z,13.60
2023-05-13T04:33:24.704Z,13.80
2023-05-13T04:35:53.610Z,14.00
2023-05-13T04:38:24.267Z,14.20
2023-05-13T04:40:53.860Z,14.50
2023-05-13T04:43:30.683Z,14.50
2023-05-13T04:46:01.192Z,14.60
2023-05-13T04:48:30.227Z,14.50
2023-05-13T04:51:00.259Z,14.70
2023-05-13T04:53:31.120Z,14.80
2023-05-13T04:56:03.036Z,15.20
2023-05-13T04:58:32.463Z,15.50
2023-05-13T05:01:01.130Z,15.70
2023-05-13T05:03:30.340Z,15.90
2023-05-13T05:06:00.442Z,16.00
2023-05-13T05:08:32.889Z,16.20
2023-05-13T05:11:01.883Z,16.40
2023-05-13T05:13:32.184Z,16.60
2023-05-13T05:16:01.283Z,16.70
2023-05-13T05:18:32.266Z,16.70
2023-05-13T05:21:02.555Z,16.90
2023-05-13T05:23:33.068Z,17.00
2023-05-13T05:26:11.236Z,17.10
2023-05-13T05:28:44.006Z,17.10
2023-05-13T05:31:14.219Z,16.90
2023-05-13T05:33:43.303Z,16.30
2023-05-13T05:36:11.924Z,15.90
2023-05-13T05:38:42.230Z,15.30
2023-05-13T05:41:11.593Z,15.10
2023-05-13T05:43:40.300Z,14.90
2023-05-13T05:46:11.284Z,15.00
2023-05-13T05:48:39.999Z,15.00
2023-05-13T05:51:08.858Z,15.00
2023-05-13T05:53:41.139Z,15.00
2023-05-13T05:56:13.909Z,15.00
2023-05-13T05:58:43.317Z,15.10
2023-05-13T06:01:12.145Z,15.20
2023-05-13T06:03:41.090Z,15.30
2023-05-13T06:06:09.957Z,15.50
2023-05-13T06:08:38.657Z,15.60
2023-05-13T06:11:09.451Z,15.70
2023-05-13T06:13:39.922Z,15.70
2023-05-13T06:16:08.931Z,15.80
2023-05-13T06:18:40.333Z,16.00
2023-05-13T06:21:09.277Z,16.10
2023-05-13T06:23:37.915Z,16.20
2023-05-13T06:26:06.637Z,16.30
2023-05-13T06:28:37.012Z,16.40
2023-05-13T06:31:07.454Z,16.50
2023-05-13T06:33:36.281Z,16.60
2023-05-13T06:36:05.304Z,16.60
2023-05-13T06:38:34.852Z,16.70
2023-05-13T06:41:04.281Z,16.70
2023-05-13T06:43:38.799Z,16.80
2023-05-13T06:46:25.412Z,16.90
2023-05-13T06:48:56.806Z,17.00
2023-05-13T06:51:26.323Z,17.20
2023-05-13T06:53:55.368Z,17.30
2023-05-13T06:56:24.096Z,17.50
2023-05-13T06:58:52.989Z,17.60
2023-05-13T07:01:21.738Z,17.80
2023-05-13T07:03:51.898Z,17.80
2023-05-13T07:06:20.603Z,17.90
2023-05-13T07:08:49.189Z,17.90
2023-05-13T07:11:17.874Z,18.10
2023-05-13T07:13:47.173Z,18.10
2023-05-13T07:16:16.060Z,18.20
2023-05-13T07:18:45.190Z,18.40
2023-05-13T07:21:16.620Z,18.40
2023-05-13T07:23:45.372Z,18.60
2023-05-13T07:26:14.119Z,18.60
2023-05-13T07:28:43.420Z,18.70
2023-05-13T07:31:12.258Z,18.80
2023-05-13T07:33:41.019Z,18.80
2023-05-13T07:36:09.872Z,18.80
2023-05-13T07:38:39.939Z,18.80
2023-05-13T07:41:08.779Z,18.80
2023-05-13T07:43:40.806Z,18.80
2023-05-13T07:46:09.869Z,18.80
2023-05-13T07:48:38.385Z,18.90
2023-05-13T07:51:07.039Z,18.90
2023-05-13T07:53:36.724Z,18.80
2023-05-13T07:56:07.881Z,18.80
2023-05-13T07:58:37.354Z,18.80
2023-05-13T08:01:06.152Z,19.00
2023-05-13T08:03:34.929Z,19.10
2023-05-13T08:06:03.813Z,19.10
2023-05-13T08:08:32.605Z,19.20
2023-05-13T08:11:01.446Z,19.50
2023-05-13T08:13:31.557Z,19.50
2023-05-13T08:16:02.293Z,19.40
2023-05-13T08:18:31.168Z,19.40
2023-05-13T08:20:59.934Z,19.50
2023-05-13T08:23:43.466Z,19.40
2023-05-13T08:26:13.173Z,19.40
2023-05-13T08:28:43.171Z,19.30
2023-05-13T08:31:12.863Z,19.30
2023-05-13T08:33:42.755Z,19.30
2023-05-13T08:36:11.504Z,19.50
2023-05-13T08:38:40.174Z,19.50
2023-05-13T08:41:08.970Z,19.50
2023-05-13T08:43:39.173Z,19.50
2023-05-13T08:46:11.801Z,19.60
2023-05-13T08:48:42.160Z,19.70
2023-05-13T08:51:11.223Z,19.70
2023-05-13T08:53:40.778Z,19.60
2023-05-13T08:56:10.467Z,19.70
2023-05-13T08:58:39.124Z,19.80
2023-05-13T09:01:09.779Z,19.90
2023-05-13T09:03:47.183Z,19.90
2023-05-13T09:06:15.829Z,19.90
2023-05-13T09:08:44.601Z,20.00
2023-05-13T09:11:13.394Z,20.20
2023-05-13T09:13:44.319Z,20.10
2023-05-13T09:16:15.320Z,20.20
2023-05-13T09:18:44.120Z,20.30
2023-05-13T09:21:26.000Z,20.30
2023-05-13T09:24:08.666Z,20.30
2023-05-13T09:26:39.465Z,20.20
2023-05-13T09:29:21.709Z,20.20
2023-05-13T09:31:53.858Z,20.30
2023-05-13T09:34:30.174Z,20.40
2023-05-13T09:37:00.364Z,20.40
2023-05-13T09:39:30.200Z,20.50
2023-05-13T09:42:03.747Z,20.60
2023-05-13T09:44:33.836Z,20.50
2023-05-13T09:47:04.179Z,20.60
2023-05-13T09:49:33.649Z,20.60
2023-05-13T09:52:02.650Z,20.10
2023-05-13T09:54:36.776Z,20.30
2023-05-13T09:57:06.345Z,20.60
2023-05-13T09:59:35.208Z,20.80
2023-05-13T10:02:07.170Z,20.80
2023-05-13T10:04:36.258Z,20.90
2023-05-13T10:07:06.898Z,20.70
2023-05-13T10:09:38.204Z,20.90
2023-05-13T10:12:09.516Z,21.20
2023-05-13T10:14:39.201Z,21.30
2023-05-13T10:17:10.105Z,21.30
2023-05-13T10:19:39.100Z,21.20
2023-05-13T10:22:08.127Z,21.30
2023-05-13T10:24:38.993Z,21.40
2023-05-13T10:27:08.953Z,21.50
2023-05-13T10:29:40.528Z,21.50
2023-05-13T10:32:11.748Z,21.30
2023-05-13T10:34:43.219Z,21.20
2023-05-13T10:37:35.582Z,21.40
2023-05-13T10:40:23.196Z,21.50
2023-05-13T10:43:00.894Z,21.50
2023-05-13T10:45:33.594Z,21.50
2023-05-13T10:48:09.005Z,21.60
2023-05-13T10:50:39.481Z,22.00
2023-05-13T10:53:18.936Z,21.80
2023-05-13T10:55:47.706Z,20.90
2023-05-13T10:58:16.773Z,20.50
2023-05-13T11:00:46.539Z,20.50
2023-05-13T11:03:29.300Z,20.80
2023-05-13T11:06:14.834Z,21.20
2023-05-13T11:08:45.271Z,21.50
2023-05-13T11:11:35.722Z,21.00
2023-05-13T11:14:09.671Z,20.80
2023-05-13T11:16:38.664Z,20.80
2023-05-13T11:19:21.458Z,20.70
2023-05-13T11:21:53.231Z,21.10
2023-05-13T11:24:23.024Z,21.40
2023-05-13T11:26:53.287Z,21.10
2023-05-13T11:29:32.700Z,21.00
2023-05-13T11:32:02.320Z,21.00
2023-05-13T11:34:33.114Z,21.10
2023-05-13T11:37:09.806Z,21.30
2023-05-13T11:39:41.305Z,21.30
2023-05-13T11:42:11.331Z,20.80
2023-05-13T11:44:46.968Z,20.40
2023-05-13T11:47:15.889Z,20.20
2023-05-13T11:49:47.638Z,20.40
2023-05-13T11:52:18.452Z,21.00
2023-05-13T11:54:48.916Z,21.40
2023-05-13T11:57:22.191Z,21.80
2023-05-13T11:59:56.491Z,21.90
2023-05-13T12:02:26.315Z,22.10
2023-05-13T12:04:56.825Z,22.50
2023-05-13T12:07:26.909Z,22.80
2023-05-13T12:09:58.024Z,22.70
2023-05-13T12:12:27.953Z,22.30
2023-05-13T12:14:57.877Z,22.40
2023-05-13T12:17:27.057Z,22.50
2023-05-13T12:20:14.424Z,23.20
2023-05-13T12:22:57.919Z,22.90
2023-05-13T12:25:46.691Z,23.10
2023-05-13T12:28:19.736Z,23.10
2023-05-13T12:30:53.428Z,23.20
2023-05-13T12:33:24.379Z,23.20
2023-05-13T12:35:56.029Z,23.10
2023-05-13T12:38:25.872Z,23.20
2023-05-13T12:40:55.168Z,22.60
2023-05-13T12:43:24.840Z,22.10
2023-05-13T12:45:57.672Z,21.50
2023-05-13T12:48:27.041Z,21.20
2023-05-13T12:50:58.014Z,20.90
2023-05-13T12:53:27.618Z,21.00
2023-05-13T12:55:56.271Z,21.40
2023-05-13T12:58:25.169Z,21.80
2023-05-13T13:00:53.860Z,22.10
2023-05-13T13:03:24.477Z,22.40
2023-05-13T13:05:53.537Z,22.60
2023-05-13T13:08:23.858Z,22.20
2023-05-13T13:10:52.682Z,22.20
2023-05-13T13:13:21.405Z,22.30
2023-05-13T13:15:50.055Z,22.40
2023-05-13T13:18:19.618Z,22.30
2023-05-13T13:20:48.248Z,21.90
2023-05-13T13:23:17.468Z,21.50
2023-05-13T13:25:47.604Z,21.10
2023-05-13T13:28:16.373Z,20.90
2023-05-13T13:30:47.366Z,20.70
2023-05-13T13:33:17.218Z,20.60
2023-05-13T13:35:47.060Z,20.70
2023-05-13T13:38:16.048Z,21.00
2023-05-13T13:40:45.032Z,21.30
2023-05-13T13:43:16.014Z,21.60
2023-05-13T13:45:44.955Z,22.00
2023-05-13T13:48:14.313Z,22.20
2023-05-13T13:50:45.335Z,22.00
2023-05-13T13:53:15.680Z,21.80
2023-05-13T13:55:44.738Z,21.90
2023-05-13T13:58:15.867Z,21.90
2023-05-13T14:00:44.903Z,21.60
2023-05-13T14:03:13.949Z,21.20
2023-05-13T14:05:42.948Z,21.00
2023-05-13T14:08:12.155Z,20.80
2023-05-13T14:10:41.032Z,20.70
2023-05-13T14:13:09.853Z,20.90
2023-05-13T14:15:40.647Z,21.10
2023-05-13T14:18:09.582Z,21.30
2023-05-13T14:20:39.238Z,21.30
2023-05-13T14:23:08.031Z,21.10
2023-05-13T14:25:37.246Z,20.80
2023-05-13T14:28:06.060Z,20.70
2023-05-13T14:30:35.160Z,20.50
2023-05-13T14:33:05.949Z,20.40
2023-05-13T14:35:35.933Z,20.20
2023-05-13T14:38:04.889Z,20.10
2023-05-13T14:40:34.469Z,20.10
2023-05-13T14:43:03.349Z,20.10
2023-05-13T14:45:31.975Z,20.20
2023-05-13T14:48:00.880Z,20.20
2023-05-13T14:50:31.462Z,20.10
2023-05-13T14:53:00.424Z,20.20
2023-05-13T14:55:29.226Z,20.20
2023-05-13T14:57:58.213Z,20.20
2023-05-13T15:00:27.206Z,20.20
2023-05-13T15:02:56.308Z,20.20
2023-05-13T15:05:26.463Z,20.10
2023-05-13T15:07:57.626Z,20.10
2023-05-13T15:10:26.502Z,20.20
2023-05-13T15:12:55.659Z,20.20
2023-05-13T15:15:24.708Z,20.20
2023-05-13T15:17:53.904Z,20.20
2023-05-13T15:20:23.384Z,20.10
2023-05-13T15:22:52.502Z,20.10
2023-05-13T15:25:22.995Z,20.10
2023-05-13T15:27:51.956Z,20.00
2023-05-13T15:30:20.887Z,19.80
2023-05-13T15:32:49.680Z,19.70
2023-05-13T15:35:18.464Z,19.70
2023-05-13T15:37:47.090Z,19.60
2023-05-13T15:40:16.008Z,19.60
2023-05-13T15:42:46.021Z,19.50
2023-05-13T15:45:14.812Z,19.40
2023-05-13T15:47:43.586Z,19.40
2023-05-13T15:50:12.764Z,19.50
2023-05-13T15:52:41.394Z,19.60
2023-05-13T15:55:10.082Z,19.80
2023-05-13T15:57:39.779Z,20.10
2023-05-13T16:00:11.409Z,20.40
2023-05-13T16:02:41.375Z,20.60
2023-05-13T16:05:11.880Z,20.80
2023-05-13T16:07:40.612Z,20.90
2023-05-13T16:10:09.596Z,21.00
2023-05-13T16:12:38.978Z,21.10
2023-05-13T16:15:10.168Z,21.10
2023-05-13T16:17:38.906Z,21.00
2023-05-13T16:20:10.859Z,21.00
2023-05-13T16:22:40.392Z,20.90
2023-05-13T16:25:10.607Z,20.90
2023-05-13T16:27:42.955Z,20.80
2023-05-13T16:30:13.711Z,20.80
2023-05-13T16:32:42.956Z,20.80
2023-05-13T16:35:12.668Z,20.80
2023-05-13T16:37:41.302Z,20.80
2023-05-13T16:40:11.194Z,20.60
2023-05-13T16:42:39.889Z,20.50
2023-05-13T16:45:09.814Z,20.50
2023-05-13T16:47:40.120Z,20.50
2023-05-13T16:50:09.778Z,20.50
2023-05-13T16:52:38.500Z,20.50
2023-05-13T16:55:08.021Z,20.40
2023-05-13T16:57:36.709Z,20.40
2023-05-13T17:00:06.237Z,20.40
2023-05-13T17:02:34.946Z,20.50
2023-05-13T17:05:05.529Z,20.60
2023-05-13T17:07:34.158Z,20.90
2023-05-13T17:10:02.783Z,21.30
2023-05-13T17:12:31.648Z,21.50
2023-05-13T17:15:00.329Z,21.70
2023-05-13T17:17:29.091Z,22.00
2023-05-13T17:19:57.780Z,22.00
2023-05-13T17:22:27.892Z,22.10
2023-05-13T17:24:56.634Z,22.20
2023-05-13T17:27:25.593Z,22.20
2023-05-13T17:29:54.343Z,22.20
2023-05-13T17:32:23.325Z,21.90
2023-05-13T17:34:51.981Z,21.60
2023-05-13T17:37:20.668Z,21.20
2023-05-13T17:39:51.185Z,20.80
2023-05-13T17:42:19.821Z,20.30
2023-05-13T17:44:48.528Z,20.00
2023-05-13T17:47:17.331Z,19.80
2023-05-13T17:49:45.959Z,19.50
2023-05-13T17:52:14.617Z,19.40
2023-05-13T17:54:43.330Z,19.20
2023-05-13T17:57:14.399Z,19.10
2023-05-13T17:59:43.415Z,19.00
2023-05-13T18:02:12.120Z,18.80
2023-05-13T18:04:41.083Z,18.70
2023-05-13T18:07:10.145Z,18.50
2023-05-13T18:09:38.815Z,18.40
2023-05-13T18:12:08.449Z,18.30
2023-05-13T18:14:38.381Z,18.10
2023-05-13T18:17:07.038Z,17.80
2023-05-13T18:19:35.714Z,17.50
2023-05-13T18:22:05.448Z,17.20
2023-05-13T18:24:34.029Z,17.00
2023-05-13T18:27:02.579Z,16.90
2023-05-13T18:29:31.416Z,16.90
2023-05-13T18:32:01.682Z,16.80
2023-05-13T18:34:30.459Z,16.70
2023-05-13T18:36:59.193Z,16.50
2023-05-13T18:39:27.811Z,16.30
2023-05-13T18:41:56.420Z,16.20
2023-05-13T18:44:25.048Z,16.10
2023-05-13T18:46:53.829Z,16.00
2023-05-13T18:49:27.325Z,15.90
2023-05-13T18:51:56.176Z,15.60
2023-05-13T18:54:27.683Z,15.40
2023-05-13T18:56:56.763Z,15.30
2023-05-13T18:59:25.382Z,15.20
2023-05-13T19:01:54.156Z,15.00
2023-05-13T19:04:24.357Z,14.80
2023-05-13T19:06:53.231Z,14.50
2023-05-13T19:09:22.428Z,14.40
2023-05-13T19:11:51.080Z,14.30
2023-05-13T19:14:19.679Z,14.40
2023-05-13T19:16:48.499Z,14.20
2023-05-13T19:19:17.187Z,14.00
2023-05-13T19:21:47.288Z,13.80
2023-05-13T19:24:16.131Z,13.70
2023-05-13T19:26:44.874Z,13.60
2023-05-13T19:29:13.801Z,13.50
2023-05-13T19:31:42.560Z,13.50
2023-05-13T19:34:11.708Z,13.70
2023-05-13T19:36:40.466Z,13.70
2023-05-13T19:39:10.542Z,13.80
2023-05-13T19:41:39.364Z,13.90
2023-05-13T19:44:07.952Z,13.80
2023-05-13T19:46:36.840Z,13.80
2023-05-13T19:49:05.568Z,13.60
2023-05-13T19:51:34.246Z,13.60
2023-05-13T19:54:02.865Z,13.50
2023-05-13T19:56:33.341Z,13.40
2023-05-13T19:59:02.013Z,13.30
2023-05-13T20:01:31.951Z,13.20
2023-05-13T20:04:00.871Z,13.10
2023-05-13T20:06:29.481Z,12.90
2023-05-13T20:08:58.456Z,12.70
2023-05-13T20:11:27.183Z,12.50
2023-05-13T20:13:59.144Z,12.30
2023-05-13T20:16:28.831Z,12.50
2023-05-13T20:18:57.501Z,12.40
2023-05-13T20:21:26.104Z,12.20
2023-05-13T20:23:54.702Z,12.40
2023-05-13T20:26:25.828Z,12.30
2023-05-13T20:28:57.457Z,12.20
2023-05-13T20:31:26.252Z,12.10
2023-05-13T20:33:56.149Z,12.00
2023-05-13T20:36:24.859Z,11.90
2023-05-13T20:38:53.512Z,11.90
2023-05-13T20:41:22.255Z,11.80
2023-05-13T20:43:50.874Z,11.80
2023-05-13T20:46:21.068Z,11.80
2023-05-13T20:48:49.844Z,11.90
2023-05-13T20:51:18.504Z,11.80
2023-05-13T20:53:47.588Z,11.80
2023-05-13T20:56:16.197Z,11.80
2023-05-13T20:58:44.953Z,11.90
2023-05-13T21:01:13.750Z,11.90
2023-05-13T21:03:43.896Z,11.80
2023-05-13T21:06:12.659Z,11.70
2023-05-13T21:08:41.296Z,11.50
2023-05-13T21:11:10.104Z,11.50
2023-05-13T21:13:38.635Z,11.70
2023-05-13T21:16:07.900Z,11.80
2023-05-13T21:18:36.790Z,11.80
2023-05-13T21:21:08.694Z,11.70
2023-05-13T21:23:39.805Z,11.70
2023-05-13T21:26:08.570Z,11.60
2023-05-13T21:28:37.399Z,11.60
2023-05-13T21:31:06.364Z,11.50
2023-05-13T21:33:35.093Z,11.30
2023-05-13T21:36:03.814Z,10.90
2023-05-13T21:38:33.998Z,10.50
2023-05-13T21:41:02.668Z,10.30
2023-05-13T21:43:31.263Z,10.30
2023-05-13T21:46:00.037Z,10.20
2023-05-13T21:48:28.638Z,10.20
2023-05-13T21:50:57.939Z,10.20
2023-05-13T21:53:26.639Z,10.30
2023-05-13T21:56:00.301Z,10.30
2023-05-13T21:58:29.134Z,10.30
2023-05-13T22:00:59.959Z,10.40
2023-05-13T22:03:28.842Z,10.50
2023-05-13T22:05:57.643Z,10.60
2023-05-13T22:08:26.403Z,10.70
2023-05-13T22:10:56.468Z,10.80
2023-05-13T22:13:25.690Z,10.80
2023-05-13T22:15:54.431Z,10.90
2023-05-13T22:18:23.824Z,10.90
2023-05-13T22:20:52.649Z,10.90
2023-05-13T22:23:21.408Z,10.80
2023-05-13T22:25:50.570Z,10.80
2023-05-13T22:28:21.323Z,10.60
2023-05-13T22:30:52.433Z,10.60
2023-05-13T22:33:21.246Z,10.50
2023-05-13T22:35:49.978Z,10.40
2023-05-13T22:38:18.689Z,10.40
2023-05-13T22:40:47.195Z,10.50
2023-05-13T22:43:15.946Z,10.50
2023-05-13T22:45:45.908Z,10.40
2023-05-13T22:48:15.082Z,10.30
2023-05-13T22:50:43.701Z,10.20
2023-05-13T22:53:12.476Z,10.20
2023-05-13T22:55:41.212Z,10.40
2023-05-13T22:58:09.830Z,10.40
2023-05-13T23:00:38.549Z,10.30
2023-05-13T23:03:08.507Z,10.40
2023-05-13T23:05:37.218Z,10.30
2023-05-13T23:08:06.471Z,10.30
2023-05-13T23:10:35.100Z,10.10
2023-05-13T23:13:05.851Z,10.00
2023-05-13T23:15:36.049Z,9.90
2023-05-13T23:18:04.965Z,9.90
2023-05-13T23:20:35.005Z,9.90
2023-05-13T23:23:03.632Z,10.10
2023-05-13T23:25:32.876Z,10.10
2023-05-13T23:28:01.476Z,10.20
2023-05-13T23:30:30.111Z,10.10
2023-05-13T23:32:58.753Z,10.10
2023-05-13T23:35:27.535Z,10.10
2023-05-13T23:37:57.521Z,10.10
2023-05-13T23:40:26.217Z,9.90
2023-05-13T23:42:54.909Z,9.80
2023-05-13T23:45:23.552Z,9.70
2023-05-13T23:47:52.262Z,9.70
2023-05-13T23:50:21.080Z,9.70
2023-05-13T23:52:51.295Z,9.70
2023-05-13T23:55:21.678Z,9.70
2023-05-13T23:57:50.293Z,9.70
